Beaumont, Texas
Current Conditions -  °F | °C
As of 4:35 PM on Sunday 25 Jan 2015 (Local Time) from KBMT Reporting Station
Clear Clear  
Wind Chill: 68°   Ceiling: Unl
Heat Index: 68°   Visibility: 10mi
Dew Point: 44°   Wind: 10mph
Humidity: 42%   Direction: 280°W
Pressure: 29.97"   Gusts: 18mph
Location:  30.09°N, 94.1°W
Report Text: KBMT 252235Z AUTO 28009G16KT 10SM CLR 20/07 A2997 RMK AO2 T01990067
Loading
Personal Weather Stations






























Interactive Weather Map New forecast layout! Learn more

10-Day Weather Forecast

Advertisements
Track Severe Weather on mobile